Time;durP1;ratioP1;P1;durP2;ratioP2;P2;SDS_P1;SDS_P2;PMS_P1;PMS_P2;Temp;Humidity;BMP_temperature;BMP_pressure;BME280_temperature;BME280_humidity;BME280_pressure;Samples;Min_cycle;Max_cycle;Signal;HPM_P1;HPM_P2
2022/05/05 00:00:41;;;;;;;5.85;5.65;;;;;;;8.61;80.55;101176.53;5051662;28;20017;-59
2022/05/05 00:03:07;;;;;;;5.82;5.63;;;;;;;8.58;80.28;101179.44;5050669;28;20025;-60
2022/05/05 00:05:32;;;;;;;5.80;5.60;;;;;;;8.54;79.21;101188.66;5051500;28;20166;-62
2022/05/05 00:07:58;;;;;;;5.85;5.65;;;;;;;8.51;81.13;101179.19;5051923;28;20025;-61
2022/05/05 00:15:51;;;;;;;5.65;5.45;;;;;;;8.44;81.20;101186.03;5050906;28;20040;-62
2022/05/05 00:18:17;;;;;;;5.95;5.75;;;;;;;8.29;83.16;101185.63;5046177;28;20384;-60
2022/05/05 00:20:42;;;;;;;6.20;5.90;;;;;;;8.34;82.15;101184.38;5041576;28;20037;-61
2022/05/05 00:23:08;;;;;;;6.03;5.80;;;;;;;8.20;83.39;101189.16;5051739;28;20379;-61
2022/05/05 00:25:33;;;;;;;5.80;5.60;;;;;;;8.12;83.96;101190.84;5051664;28;20508;-61
2022/05/05 00:27:59;;;;;;;5.88;5.68;;;;;;;8.15;84.17;101198.47;5053053;28;20091;-60
2022/05/05 00:30:24;;;;;;;5.70;5.50;;;;;;;8.08;84.16;101197.38;5051479;28;20694;-60
2022/05/05 00:32:50;;;;;;;5.80;5.60;;;;;;;8.05;86.05;101195.84;5056738;28;20024;-60
2022/05/05 00:35:15;;;;;;;5.80;5.60;;;;;;;8.10;84.29;101198.09;5056888;28;20053;-60
2022/05/05 00:37:40;;;;;;;5.95;5.75;;;;;;;8.04;83.42;101205.59;5050278;28;20025;-61
2022/05/05 00:40:07;;;;;;;5.85;5.65;;;;;;;7.99;86.17;101199.06;5051455;28;20056;-61
2022/05/05 00:42:33;;;;;;;5.78;5.57;;;;;;;7.99;85.40;101204.34;5051593;28;20075;-61
2022/05/05 00:45:00;;;;;;;6.13;5.82;;;;;;;7.94;85.53;101203.97;5051657;28;20028;-60
2022/05/05 00:47:26;;;;;;;5.65;5.45;;;;;;;7.86;85.65;101207.31;5050693;28;20472;-61
2022/05/05 00:49:52;;;;;;;5.80;5.60;;;;;;;7.83;85.57;101209.38;5051621;28;20031;-61
2022/05/05 00:52:18;;;;;;;5.90;5.70;;;;;;;7.81;85.81;101204.25;5050428;28;20064;-60
2022/05/05 00:54:44;;;;;;;5.70;5.50;;;;;;;7.82;85.46;101205.06;5042254;28;20045;-62
2022/05/05 00:57:10;;;;;;;5.70;5.50;;;;;;;7.82;85.87;101208.53;5047717;28;20053;-61
2022/05/05 00:59:37;;;;;;;5.70;5.50;;;;;;;7.83;87.06;101212.00;5055137;28;20053;-61
2022/05/05 01:02:03;;;;;;;6.10;5.80;;;;;;;7.79;85.35;101216.75;5055716;28;20032;-61
2022/05/05 01:04:31;;;;;;;5.70;5.50;;;;;;;7.70;86.84;101217.56;5055412;28;20663;-61
2022/05/05 01:06:59;;;;;;;5.53;5.32;;;;;;;7.69;86.66;101227.31;5055166;28;20060;-61
2022/05/05 01:09:25;;;;;;;5.90;5.70;;;;;;;7.62;86.93;101225.34;5054847;28;20060;-61
2022/05/05 01:11:51;;;;;;;6.10;5.80;;;;;;;7.54;88.79;101226.06;5049013;28;20033;-61
2022/05/05 01:14:16;;;;;;;5.70;5.50;;;;;;;7.63;89.05;101227.84;5054120;28;20075;-61
2022/05/05 01:16:42;;;;;;;5.57;5.38;;;;;;;7.47;89.20;101224.94;5054917;28;20096;-60
2022/05/05 01:19:08;;;;;;;5.80;5.60;;;;;;;7.46;88.38;101225.91;5050814;28;20017;-62
2022/05/05 01:21:33;;;;;;;5.55;5.35;;;;;;;7.45;87.47;101238.28;5053501;28;20032;-60
2022/05/05 01:23:59;;;;;;;5.85;5.65;;;;;;;7.45;87.79;101232.16;5054569;28;20115;-61
2022/05/05 01:29:10;;;;;;;5.50;5.30;;;;;;;7.44;87.63;101235.78;5042854;28;20040;-61
2022/05/05 01:31:35;;;;;;;5.80;5.60;;;;;;;7.35;88.73;101240.06;5052531;28;20044;-61
2022/05/05 01:34:01;;;;;;;5.80;5.60;;;;;;;7.34;89.58;101245.47;5062141;28;20028;-61
2022/05/05 01:36:27;;;;;;;6.15;5.85;;;;;;;7.40;88.74;101250.19;5053703;28;20090;-61
2022/05/05 01:38:52;;;;;;;5.85;5.65;;;;;;;7.38;87.73;101242.44;5050543;28;20029;-62
2022/05/05 01:41:18;;;;;;;5.75;5.55;;;;;;;7.40;87.39;101248.41;5047156;28;21331;-61
2022/05/05 01:43:45;;;;;;;5.60;5.40;;;;;;;7.24;88.25;101250.72;5054435;28;20032;-62
2022/05/05 01:46:11;;;;;;;5.70;5.50;;;;;;;7.08;88.36;101234.59;5052472;28;20037;-62
2022/05/05 01:48:36;;;;;;;5.80;5.60;;;;;;;7.06;88.46;101228.63;5054244;28;20075;-61
2022/05/05 01:51:03;;;;;;;5.53;5.32;;;;;;;7.09;88.58;101257.34;5054466;28;20067;-61
2022/05/05 01:53:36;;;;;;;5.80;5.60;;;;;;;7.03;89.48;101257.88;5053868;28;20064;-62
2022/05/05 01:56:12;;;;;;;5.75;5.55;;;;;;;6.97;89.97;101263.69;5043748;28;20021;-61
2022/05/05 01:58:41;;;;;;;5.90;5.70;;;;;;;7.06;89.50;101252.38;5052509;28;20408;-61
2022/05/05 02:01:08;;;;;;;5.85;5.65;;;;;;;6.84;92.16;101264.78;5054086;28;20021;-61
2022/05/05 02:03:33;;;;;;;5.75;5.55;;;;;;;6.90;92.05;101273.94;5052518;28;20036;-61
2022/05/05 02:05:59;;;;;;;5.50;5.30;;;;;;;6.68;94.32;101266.19;5053928;28;20021;-61
2022/05/05 02:08:24;;;;;;;5.65;5.45;;;;;;;6.82;91.81;101266.69;5046064;28;20118;-60
2022/05/05 02:10:50;;;;;;;5.80;5.60;;;;;;;6.70;93.06;101267.75;5052120;28;20414;-62
2022/05/05 02:13:15;;;;;;;5.97;5.68;;;;;;;6.64;93.36;101276.19;5053856;28;20031;-62
2022/05/05 02:15:41;;;;;;;5.90;5.70;;;;;;;6.62;94.56;101275.50;5053814;28;20021;-62
2022/05/05 02:18:09;;;;;;;5.72;5.53;;;;;;;6.66;94.78;101282.16;5053746;28;20051;-61
2022/05/05 02:20:34;;;;;;;5.60;5.40;;;;;;;6.59;96.59;101273.94;5048928;28;20040;-60
2022/05/05 02:23:00;;;;;;;6.10;5.80;;;;;;;6.58;96.69;101279.34;5053237;28;20111;-60
2022/05/05 02:25:25;;;;;;;5.88;5.68;;;;;;;6.53;97.31;101287.63;5053825;28;20093;-61
2022/05/05 02:27:52;;;;;;;5.60;5.40;;;;;;;6.51;97.52;101289.56;5055743;28;20049;-61
2022/05/05 02:30:20;;;;;;;6.10;5.80;;;;;;;6.47;97.78;101284.69;5045694;28;20435;-62
2022/05/05 02:32:46;;;;;;;5.80;5.60;;;;;;;6.44;97.88;101291.03;5055391;28;20024;-62
2022/05/05 02:35:12;;;;;;;5.63;5.43;;;;;;;6.44;98.57;101291.03;5053452;28;20411;-62
2022/05/05 02:40:22;;;;;;;5.53;5.32;;;;;;;6.44;98.54;101300.75;5052142;28;20407;-62
2022/05/05 02:42:47;;;;;;;5.70;5.50;;;;;;;6.44;98.24;101306.03;5053635;28;20112;-61
2022/05/05 02:45:13;;;;;;;5.97;5.70;;;;;;;6.35;99.71;101308.47;5047131;28;20033;-62
2022/05/05 02:47:38;;;;;;;5.70;5.50;;;;;;;6.47;99.37;101303.16;5053285;28;20023;-60
2022/05/05 02:50:04;;;;;;;5.82;5.60;;;;;;;6.41;100.00;101309.78;5051223;28;20024;-59
2022/05/05 02:52:30;;;;;;;5.75;5.55;;;;;;;6.50;99.52;101310.78;5053521;28;20059;-60
2022/05/05 02:54:56;;;;;;;5.72;5.53;;;;;;;6.75;99.46;101317.44;5051764;28;20488;-61
2022/05/05 02:57:23;;;;;;;5.68;5.47;;;;;;;6.87;98.10;101311.13;5052826;28;20496;-62
2022/05/05 02:59:50;;;;;;;5.55;5.35;;;;;;;7.03;96.37;101311.47;5052942;28;20033;-62
2022/05/05 03:02:17;;;;;;;6.50;6.20;;;;;;;7.13;96.13;101316.81;5046863;28;20029;-60
2022/05/05 03:04:43;;;;;;;5.43;5.22;;;;;;;7.43;94.09;101319.41;5045861;28;20377;-61
2022/05/05 03:07:09;;;;;;;5.82;5.63;;;;;;;7.53;93.11;101324.72;5052848;28;20036;-60
2022/05/05 03:09:34;;;;;;;6.22;5.93;;;;;;;7.79;90.20;101319.78;5052699;28;20370;-61
2022/05/05 03:12:00;;;;;;;5.40;5.20;;;;;;;8.02;87.10;101323.81;5050862;28;20090;-61
2022/05/05 03:14:26;;;;;;;5.43;5.22;;;;;;;8.27;85.10;101326.88;5052845;28;20032;-60
2022/05/05 03:16:51;;;;;;;5.55;5.35;;;;;;;8.54;83.29;101320.88;5052295;28;20211;-60
2022/05/05 03:19:16;;;;;;;5.80;5.60;;;;;;;8.73;80.90;101330.56;5044156;28;20029;-60
2022/05/05 03:21:42;;;;;;;5.90;5.70;;;;;;;9.37;77.90;101333.28;5052761;28;20034;-60
2022/05/05 03:24:08;;;;;;;5.68;5.47;;;;;;;9.73;75.48;101329.88;5047895;28;20059;-61
2022/05/05 03:26:33;;;;;;;5.80;5.60;;;;;;;10.26;71.98;101321.94;5041956;28;20025;-62
2022/05/05 03:28:59;;;;;;;5.70;5.50;;;;;;;10.97;69.24;101340.38;5050479;28;20098;-60
2022/05/05 03:31:24;;;;;;;5.78;5.57;;;;;;;11.76;65.88;101344.53;5052107;28;20021;-60
2022/05/05 03:33:50;;;;;;;6.03;5.82;;;;;;;13.64;58.81;101339.00;5061020;28;20025;-62
2022/05/05 03:36:16;;;;;;;6.10;5.90;;;;;;;15.01;54.08;101344.25;5052190;28;20746;-61
2022/05/05 03:38:42;;;;;;;6.60;6.30;;;;;;;15.63;50.89;101356.41;5046931;28;20029;-62
2022/05/05 03:41:07;;;;;;;6.25;6.00;;;;;;;15.97;48.59;101347.75;5052177;28;20083;-61
2022/05/05 03:43:33;;;;;;;6.15;5.95;;;;;;;16.79;46.15;101358.81;5052194;28;20021;-61
2022/05/05 03:45:59;;;;;;;6.13;5.93;;;;;;;18.04;43.66;101367.69;5050690;28;20073;-60
2022/05/05 03:48:25;;;;;;;6.80;6.50;;;;;;;18.78;41.37;101362.16;5039305;28;20431;-61
2022/05/05 03:50:51;;;;;;;6.50;6.20;;;;;;;18.86;39.90;101353.06;5046530;28;20029;-61
2022/05/05 03:53:18;;;;;;;6.68;6.38;;;;;;;19.28;38.80;101359.81;5052642;28;20024;-62
2022/05/05 03:55:43;;;;;;;6.60;6.30;;;;;;;20.15;36.87;101372.66;5047340;28;20128;-62
2022/05/05 03:58:09;;;;;;;6.55;6.25;;;;;;;20.41;36.23;101368.13;5048146;28;20143;-62
2022/05/05 04:00:35;;;;;;;6.60;6.30;;;;;;;21.14;34.62;101371.00;5040199;28;20408;-62
2022/05/05 04:05:48;;;;;;;6.63;6.32;;;;;;;21.85;32.84;101377.66;5044685;28;20110;-62
2022/05/05 04:08:14;;;;;;;6.90;6.60;;;;;;;22.49;32.64;101380.72;5049231;28;20037;-62
2022/05/05 04:10:39;;;;;;;6.85;6.55;;;;;;;23.62;30.60;101384.91;5045575;28;20035;-62
2022/05/05 04:13:05;;;;;;;6.90;6.60;;;;;;;23.48;30.78;101391.63;5040363;28;20049;-62
2022/05/05 04:15:30;;;;;;;6.70;6.40;;;;;;;23.53;30.28;101395.28;5049710;28;20032;-62
2022/05/05 04:17:55;;;;;;;6.90;6.60;;;;;;;24.01;30.53;101393.25;5046372;28;20044;-61
2022/05/05 04:20:21;;;;;;;6.82;6.53;;;;;;;24.55;28.86;101393.69;5051005;28;20029;-63
2022/05/05 04:22:46;;;;;;;6.75;6.45;;;;;;;24.94;28.54;101398.09;5038875;28;20056;-62
2022/05/05 04:25:12;;;;;;;7.15;6.85;;;;;;;25.11;28.04;101397.28;5051824;28;20029;-63
2022/05/05 04:27:40;;;;;;;6.85;6.55;;;;;;;24.86;27.84;101405.84;5058680;28;20111;-63
2022/05/05 04:30:08;;;;;;;6.90;6.60;;;;;;;25.58;27.38;101400.34;5046000;28;20030;-62
2022/05/05 04:32:34;;;;;;;7.00;6.70;;;;;;;25.85;26.35;101401.25;5051356;28;20112;-62
2022/05/05 04:35:00;;;;;;;6.95;6.65;;;;;;;25.95;25.20;101403.25;5053761;28;20108;-62
2022/05/05 04:37:25;;;;;;;6.90;6.60;;;;;;;25.99;25.30;101406.25;5054764;28;20036;-63
2022/05/05 04:39:51;;;;;;;7.28;6.97;;;;;;;26.12;24.99;101409.41;5055113;28;20057;-63
2022/05/05 04:42:16;;;;;;;7.10;6.80;;;;;;;26.04;24.83;101409.03;5054535;28;20031;-63
2022/05/05 04:44:42;;;;;;;7.03;6.72;;;;;;;26.28;24.08;101409.53;5052552;28;20029;-61
2022/05/05 04:47:07;;;;;;;7.05;6.75;;;;;;;25.37;24.46;101407.41;5039381;28;20540;-62
2022/05/05 04:49:33;;;;;;;7.13;6.82;;;;;;;25.90;24.67;101405.91;5047610;28;20087;-61
2022/05/05 04:51:59;;;;;;;7.00;6.70;;;;;;;26.82;23.74;101409.50;5053383;28;20060;-63
2022/05/05 04:54:24;;;;;;;7.10;6.80;;;;;;;25.57;25.17;101410.41;5055160;28;20031;-62
2022/05/05 04:56:49;;;;;;;7.07;6.78;;;;;;;26.00;24.40;101407.91;5054043;28;20647;-62
2022/05/05 04:59:15;;;;;;;6.93;6.63;;;;;;;26.60;23.93;101420.50;5054812;28;20049;-64
2022/05/05 05:01:40;;;;;;;6.95;6.65;;;;;;;26.88;23.60;101419.31;5062076;28;20048;-63
2022/05/05 05:04:07;;;;;;;7.22;6.93;;;;;;;26.57;23.68;101423.72;5054791;28;20029;-61
2022/05/05 05:06:33;;;;;;;7.15;6.85;;;;;;;27.12;23.06;101425.25;5054751;28;20485;-62
2022/05/05 05:08:59;;;;;;;7.10;6.80;;;;;;;26.85;22.70;101428.84;5053183;28;20034;-62
2022/05/05 05:11:25;;;;;;;7.22;6.93;;;;;;;26.50;22.75;101423.09;5045895;28;20037;-62
2022/05/05 05:13:50;;;;;;;6.90;6.60;;;;;;;27.21;22.46;101423.66;5050155;28;20039;-62
2022/05/05 05:16:16;;;;;;;6.95;6.65;;;;;;;26.51;22.68;101428.28;5054434;28;20151;-62
2022/05/05 05:18:42;;;;;;;7.30;7.00;;;;;;;26.95;21.82;101431.63;5052362;28;20074;-64
2022/05/05 05:21:07;;;;;;;7.13;6.82;;;;;;;27.50;21.73;101429.53;5054434;28;20130;-62
2022/05/05 05:23:33;;;;;;;7.20;6.90;;;;;;;28.08;20.82;101427.56;5054590;28;20029;-62
2022/05/05 05:25:59;;;;;;;7.38;7.07;;;;;;;28.02;20.96;101429.47;5051548;28;20041;-63
2022/05/05 05:28:24;;;;;;;7.30;7.00;;;;;;;28.26;20.94;101434.41;5054401;28;20025;-64
2022/05/05 05:30:50;;;;;;;7.05;6.75;;;;;;;27.85;20.94;101436.25;5054264;28;20021;-62
2022/05/05 05:33:16;;;;;;;7.30;7.00;;;;;;;28.06;20.41;101435.22;5054310;28;20110;-64
2022/05/05 05:35:41;;;;;;;7.30;7.00;;;;;;;27.92;20.82;101440.34;5052606;28;20036;-61
2022/05/05 05:38:07;;;;;;;7.30;7.00;;;;;;;27.45;21.36;101440.41;5039898;28;20141;-63
2022/05/05 05:40:32;;;;;;;7.18;6.88;;;;;;;27.73;20.82;101441.91;5040915;28;20009;-62
2022/05/05 05:42:58;;;;;;;7.40;7.10;;;;;;;27.96;20.85;101435.97;5050965;28;20073;-62
2022/05/05 05:45:24;;;;;;;7.40;7.10;;;;;;;28.49;20.12;101449.47;5050846;28;20385;-62
2022/05/05 05:47:50;;;;;;;7.07;6.78;;;;;;;28.25;20.34;101444.50;5053718;28;20100;-62
2022/05/05 05:50:15;;;;;;;7.10;6.80;;;;;;;29.20;19.38;101449.44;5053190;28;20112;-62
2022/05/05 05:52:41;;;;;;;7.22;6.93;;;;;;;27.25;20.82;101450.13;5064730;28;20021;-62
2022/05/05 05:55:07;;;;;;;7.07;6.78;;;;;;;29.36;19.17;101448.31;5043852;28;20025;-63
2022/05/05 05:57:32;;;;;;;7.20;6.90;;;;;;;29.51;18.54;101449.38;5053946;28;20108;-62
2022/05/05 05:59:57;;;;;;;7.00;6.70;;;;;;;27.67;20.36;101443.78;5050954;28;20083;-63
2022/05/05 06:05:07;;;;;;;;;;;;;;;28.59;19.09;101455.78;5045784;28;20465;-64
2022/05/05 06:07:32;;;;;;;7.10;6.80;;;;;;;29.27;18.65;101463.63;5037395;28;20000;-63
2022/05/05 06:09:58;;;;;;;7.10;6.80;;;;;;;29.77;17.33;101464.59;5047585;28;20017;-61
2022/05/05 06:12:23;;;;;;;7.10;6.80;;;;;;;30.00;17.35;101463.13;5049494;28;20022;-62
2022/05/05 06:14:49;;;;;;;7.07;6.78;;;;;;;30.09;16.85;101461.44;5050171;28;20472;-62
2022/05/05 06:17:14;;;;;;;7.28;6.97;;;;;;;30.21;17.75;101452.91;5057298;28;20035;-62
2022/05/05 06:19:43;;;;;;;7.15;6.85;;;;;;;30.10;17.87;101457.59;5052121;28;20103;-62
2022/05/05 06:22:09;;;;;;;7.20;6.90;;;;;;;30.68;16.69;101462.41;5053926;28;20029;-63
2022/05/05 06:24:35;;;;;;;7.30;7.00;;;;;;;30.91;16.91;101464.41;5052662;28;20033;-63
2022/05/05 06:27:01;;;;;;;7.22;6.93;;;;;;;29.09;17.37;101464.25;5049438;28;20044;-63
2022/05/05 06:29:26;;;;;;;7.10;6.80;;;;;;;30.75;16.29;101465.66;5052090;28;20032;-63
2022/05/05 06:31:52;;;;;;;7.20;6.90;;;;;;;30.29;16.75;101474.19;5053934;28;20443;-63
2022/05/05 06:34:17;;;;;;;7.20;6.90;;;;;;;29.10;17.49;101483.09;5051139;28;20030;-63
2022/05/05 06:36:43;;;;;;;7.10;6.80;;;;;;;25.26;20.87;101479.78;5045375;28;20032;-63
2022/05/05 06:39:08;;;;;;;7.28;6.97;;;;;;;26.84;18.88;101473.47;5052727;28;20032;-62
2022/05/05 06:41:35;;;;;;;6.80;6.50;;;;;;;24.77;21.23;101476.00;5052944;28;20021;-62
2022/05/05 06:44:00;;;;;;;6.93;6.63;;;;;;;29.25;17.43;101476.78;5053153;28;20139;-63
2022/05/05 06:46:27;;;;;;;7.00;6.70;;;;;;;28.62;17.38;101479.78;5050651;28;20064;-63
2022/05/05 06:48:54;;;;;;;6.88;6.57;;;;;;;28.73;17.27;101479.81;5052991;28;20025;-63
2022/05/05 06:51:19;;;;;;;7.10;6.80;;;;;;;23.10;22.69;101476.91;5051867;28;20036;-63
2022/05/05 06:53:45;;;;;;;6.93;6.63;;;;;;;26.31;19.20;101477.88;5052587;28;20178;-63
2022/05/05 06:56:10;;;;;;;7.32;7.03;;;;;;;26.96;18.00;101486.94;5052419;28;20028;-63
2022/05/05 06:58:35;;;;;;;7.00;6.70;;;;;;;29.39;16.85;101482.47;5052608;28;20056;-63
2022/05/05 07:03:44;;;;;;;7.28;6.97;;;;;;;30.52;15.41;101484.44;5048724;28;20035;-62
2022/05/05 07:06:10;;;;;;;7.03;6.72;;;;;;;30.50;15.09;101483.91;5052681;28;20033;-63
2022/05/05 07:11:21;;;;;;;7.00;6.70;;;;;;;30.01;15.46;101483.91;5052614;28;20087;-63
2022/05/05 07:13:47;;;;;;;7.00;6.70;;;;;;;31.57;14.81;101488.41;5051034;28;20035;-63
2022/05/05 07:16:12;;;;;;;7.25;6.95;;;;;;;28.17;17.12;101485.97;5052588;28;20025;-63
2022/05/05 07:18:37;;;;;;;7.18;6.88;;;;;;;30.01;16.04;101497.56;5052077;28;20032;-64
2022/05/05 07:21:03;;;;;;;7.10;6.80;;;;;;;24.32;20.42;101484.94;5049574;28;20033;-63
2022/05/05 07:23:29;;;;;;;7.20;6.90;;;;;;;27.15;18.76;101484.63;5048844;28;20021;-63
2022/05/05 07:25:54;;;;;;;7.15;6.85;;;;;;;30.12;16.52;101492.91;5051398;28;20037;-63
2022/05/05 07:28:19;;;;;;;7.20;6.90;;;;;;;29.59;16.53;101496.09;5052292;28;20118;-63
2022/05/05 07:30:45;;;;;;;7.22;6.93;;;;;;;30.70;16.02;101487.59;5052313;28;20110;-63
2022/05/05 07:33:10;;;;;;;7.10;6.80;;;;;;;31.03;15.57;101500.47;5058369;28;20032;-63
2022/05/05 07:35:39;;;;;;;6.95;6.65;;;;;;;31.99;14.87;101503.28;5045181;28;20076;-62
2022/05/05 07:38:05;;;;;;;6.95;6.65;;;;;;;28.86;16.39;101496.44;5050083;28;20404;-64
2022/05/05 07:40:31;;;;;;;7.00;6.70;;;;;;;29.05;16.53;101498.66;5051863;28;20040;-63
2022/05/05 07:42:56;;;;;;;7.00;6.70;;;;;;;30.81;15.25;101506.41;5050992;28;20036;-63
2022/05/05 07:45:22;;;;;;;6.88;6.57;;;;;;;27.00;18.19;101497.03;5051840;28;20087;-63
2022/05/05 07:47:49;;;;;;;7.20;6.90;;;;;;;25.63;20.18;101495.50;5051807;28;20025;-63
2022/05/05 07:50:14;;;;;;;7.10;6.80;;;;;;;29.18;16.68;101496.19;5050066;28;20020;-64
2022/05/05 07:52:40;;;;;;;6.95;6.65;;;;;;;29.52;16.18;101500.22;5052116;28;20032;-64
2022/05/05 07:55:06;;;;;;;6.88;6.57;;;;;;;29.13;16.19;101492.63;5050476;28;20025;-62
2022/05/05 07:57:32;;;;;;;6.82;6.53;;;;;;;30.01;16.08;101497.56;5051599;28;20044;-63
2022/05/05 07:59:57;;;;;;;7.00;6.70;;;;;;;27.28;18.16;101495.06;5050649;28;20060;-62
2022/05/05 08:02:23;;;;;;;6.85;6.55;;;;;;;28.32;16.88;101502.41;5051825;28;20025;-62
2022/05/05 08:04:48;;;;;;;6.90;6.60;;;;;;;26.33;18.57;101493.94;5047269;28;20021;-63
2022/05/05 08:07:14;;;;;;;6.80;6.50;;;;;;;26.54;19.06;101498.53;5051414;28;20025;-63
2022/05/05 08:09:39;;;;;;;6.72;6.43;;;;;;;27.57;17.34;101492.78;5051924;28;20021;-61
2022/05/05 08:12:06;;;;;;;7.13;6.82;;;;;;;27.47;17.90;101499.03;5051776;28;20503;-62
2022/05/05 08:14:32;;;;;;;6.93;6.63;;;;;;;27.30;18.00;101495.63;5051288;28;20033;-63
2022/05/05 08:16:58;;;;;;;6.70;6.40;;;;;;;25.97;18.76;101492.72;5050875;28;20029;-63
2022/05/05 08:19:24;;;;;;;6.97;6.68;;;;;;;26.11;19.06;101489.34;5049705;28;20035;-62
2022/05/05 08:21:51;;;;;;;6.80;6.50;;;;;;;25.66;19.49;101486.03;5051527;28;20025;-63
2022/05/05 08:30:04;;;;;;;6.90;6.60;;;;;;;26.51;18.40;101484.59;5039153;28;20499;-63
2022/05/05 08:32:30;;;;;;;7.00;6.70;;;;;;;26.51;19.26;101485.44;5040908;28;20372;-62
2022/05/05 08:34:55;;;;;;;6.90;6.60;;;;;;;24.56;20.08;101493.81;5048475;28;20115;-63
2022/05/05 08:37:20;;;;;;;7.25;6.95;;;;;;;26.26;18.08;101493.31;5051023;28;20025;-63
2022/05/05 08:39:46;;;;;;;7.30;7.00;;;;;;;25.51;18.81;101489.38;5051124;28;20025;-62
2022/05/05 08:42:12;;;;;;;7.10;6.80;;;;;;;24.68;19.89;101480.19;5051023;28;20027;-63
2022/05/05 08:44:37;;;;;;;7.00;6.70;;;;;;;24.78;20.22;101483.06;5051159;28;20058;-63
2022/05/05 08:47:05;;;;;;;7.35;7.05;;;;;;;25.11;20.47;101484.16;5045579;28;20366;-63
2022/05/05 08:49:31;;;;;;;7.15;6.85;;;;;;;23.76;21.95;101477.59;5050937;28;20526;-63
2022/05/05 08:52:02;;;;;;;7.20;6.90;;;;;;;22.64;23.47;101480.34;5050294;28;20495;-63
2022/05/05 08:54:32;;;;;;;6.63;6.32;;;;;;;24.58;21.88;101488.97;5051178;28;20033;-65
2022/05/05 08:56:57;;;;;;;6.85;6.55;;;;;;;24.77;21.98;101486.84;5043021;28;20036;-62
2022/05/05 08:59:24;;;;;;;6.70;6.40;;;;;;;23.49;22.02;101483.47;5048762;28;20049;-63
2022/05/05 09:01:51;;;;;;;7.03;6.72;;;;;;;20.12;25.25;101480.88;5042067;28;20396;-63
2022/05/05 09:04:17;;;;;;;6.80;6.50;;;;;;;23.60;22.21;101484.53;5051022;28;20048;-63
2022/05/05 09:06:46;;;;;;;7.07;6.78;;;;;;;24.39;20.68;101482.13;5050179;28;20056;-63
2022/05/05 09:09:24;;;;;;;6.78;6.47;;;;;;;21.54;22.52;101486.69;5038735;28;20036;-63
2022/05/05 09:12:16;;;;;;;6.80;6.50;;;;;;;23.44;21.41;101483.38;5050120;28;20022;-63
2022/05/05 09:14:53;;;;;;;6.88;6.57;;;;;;;24.32;20.76;101486.84;5042641;28;20163;-62
2022/05/05 09:17:28;;;;;;;6.88;6.57;;;;;;;22.19;22.87;101483.47;5051331;28;20020;-62
2022/05/05 09:19:56;;;;;;;6.70;6.40;;;;;;;21.11;22.87;101484.78;5054547;28;20044;-63
2022/05/05 09:22:24;;;;;;;6.53;6.22;;;;;;;20.62;23.81;101485.56;5054862;28;20392;-63
2022/05/05 09:24:53;;;;;;;6.47;6.18;;;;;;;22.72;21.94;101472.72;5053775;28;20498;-63
2022/05/05 09:27:33;;;;;;;6.78;6.47;;;;;;;23.40;21.79;101477.59;5054306;28;20032;-62
2022/05/05 09:30:12;;;;;;;6.78;6.47;;;;;;;22.54;21.72;101479.00;5054972;28;20025;-63
2022/05/05 09:32:42;;;;;;;6.70;6.40;;;;;;;22.16;22.63;101479.31;5046987;28;20060;-63
2022/05/05 09:35:12;;;;;;;6.60;6.30;;;;;;;22.69;22.05;101483.97;5059053;28;20538;-63
2022/05/05 09:37:46;;;;;;;6.70;6.40;;;;;;;19.73;23.96;101481.00;5054258;28;20033;-62
2022/05/05 09:40:13;;;;;;;6.70;6.40;;;;;;;19.37;24.61;101481.47;5054489;28;20068;-62
2022/05/05 09:42:39;;;;;;;6.93;6.63;;;;;;;19.29;24.79;101469.88;5045489;28;20037;-63
2022/05/05 09:45:13;;;;;;;6.90;6.60;;;;;;;18.41;25.87;101479.94;5053784;28;20385;-62
2022/05/05 09:47:39;;;;;;;6.97;6.68;;;;;;;19.98;24.70;101475.75;5053934;28;20028;-63
2022/05/05 09:50:06;;;;;;;6.53;6.22;;;;;;;20.45;24.09;101479.88;5054253;28;20029;-62
2022/05/05 09:58:12;;;;;;;6.80;6.50;;;;;;;19.19;24.84;101476.75;5044465;28;20051;-62
2022/05/05 10:00:44;;;;;;;6.55;6.25;;;;;;;19.40;24.89;101476.50;5053849;28;20492;-63
2022/05/05 10:06:03;;;;;;;6.53;6.22;;;;;;;19.09;25.22;101477.13;5044324;28;20498;-63
2022/05/05 10:08:42;;;;;;;7.20;6.90;;;;;;;19.64;24.75;101471.50;5051857;28;20017;-61
2022/05/05 10:11:08;;;;;;;6.38;6.07;;;;;;;19.88;25.11;101458.16;5040637;28;20024;-62
2022/05/05 10:13:37;;;;;;;6.65;6.35;;;;;;;20.38;26.13;101462.91;5043037;28;20029;-63
2022/05/05 10:16:04;;;;;;;6.75;6.45;;;;;;;20.38;24.56;101460.19;5044619;28;20025;-63
2022/05/05 10:18:38;;;;;;;6.40;6.10;;;;;;;19.31;25.79;101456.22;5053774;28;20547;-63
2022/05/05 10:21:07;;;;;;;6.47;6.18;;;;;;;19.66;25.61;101458.66;5053803;28;20029;-63
2022/05/05 10:23:50;;;;;;;6.78;6.47;;;;;;;19.18;25.34;101462.47;5042235;28;20040;-63
2022/05/05 10:26:21;;;;;;;7.15;6.85;;;;;;;18.71;25.50;101464.31;5046960;28;20067;-63
2022/05/05 10:28:50;;;;;;;6.70;6.40;;;;;;;17.51;26.79;101461.38;5041160;28;20033;-62
2022/05/05 10:31:30;;;;;;;6.50;6.20;;;;;;;19.15;25.43;101462.03;5052803;28;20021;-63
2022/05/05 10:34:01;;;;;;;6.82;6.53;;;;;;;19.14;25.29;101466.59;5059930;28;20535;-63
2022/05/05 10:36:28;;;;;;;6.88;6.57;;;;;;;19.28;25.59;101448.59;5047003;28;20036;-62
2022/05/05 10:38:54;;;;;;;6.78;6.47;;;;;;;19.74;25.46;101459.25;5048863;28;20033;-63
2022/05/05 10:41:42;;;;;;;6.80;6.50;;;;;;;19.37;25.37;101450.00;5053559;28;20393;-62
2022/05/05 10:44:16;;;;;;;6.68;6.38;;;;;;;19.26;26.26;101456.03;5040821;28;20515;-63
2022/05/05 10:47:04;;;;;;;6.90;6.60;;;;;;;19.24;25.33;101460.78;5052885;28;20364;-63
2022/05/05 10:49:32;;;;;;;6.47;6.18;;;;;;;19.77;26.37;101452.63;5052497;28;20032;-63
2022/05/05 10:52:16;;;;;;;6.97;6.68;;;;;;;19.71;25.31;101445.41;5052983;28;20032;-62
2022/05/05 10:54:47;;;;;;;6.68;6.38;;;;;;;19.47;25.10;101452.28;5053034;28;20032;-63
2022/05/05 10:57:28;;;;;;;6.50;6.20;;;;;;;19.00;25.36;101452.31;5046869;28;20117;-62
2022/05/05 11:00:12;;;;;;;6.63;6.32;;;;;;;19.17;25.34;101452.75;5052615;28;20029;-62
2022/05/05 11:02:40;;;;;;;6.70;6.40;;;;;;;18.77;25.80;101454.59;5052582;28;20021;-62
2022/05/05 11:05:24;;;;;;;6.60;6.30;;;;;;;19.70;26.29;101449.97;5052843;28;20199;-63
2022/05/05 11:07:51;;;;;;;6.57;6.28;;;;;;;19.30;25.39;101435.72;5051183;28;20039;-62
2022/05/05 11:10:41;;;;;;;6.80;6.50;;;;;;;19.55;25.67;101434.03;5047260;28;20464;-63
2022/05/05 11:13:08;;;;;;;6.80;6.50;;;;;;;17.87;26.83;101440.53;5032684;28;20036;-63
2022/05/05 11:24:00;;;;;;;6.90;6.60;;;;;;;19.31;25.88;101442.75;5051209;28;20094;-63
2022/05/05 11:26:27;;;;;;;6.97;6.68;;;;;;;19.92;26.04;101431.66;5052355;28;20037;-66
2022/05/05 11:28:53;;;;;;;6.60;6.30;;;;;;;20.09;25.08;101434.66;5052582;28;20484;-63
2022/05/05 11:31:19;;;;;;;6.65;6.35;;;;;;;19.83;25.33;101435.59;5052397;28;20155;-63
2022/05/05 11:33:56;;;;;;;6.85;6.55;;;;;;;18.65;25.87;101448.16;5054516;28;20048;-63
2022/05/05 11:36:26;;;;;;;6.80;6.50;;;;;;;17.82;27.65;101434.91;5040226;28;20025;-63
2022/05/05 11:38:53;;;;;;;6.90;6.60;;;;;;;17.15;27.82;101429.38;5052016;28;20024;-63
2022/05/05 11:41:19;;;;;;;7.00;6.70;;;;;;;17.34;27.71;101420.63;5046190;28;20434;-63
2022/05/05 11:46:30;;;;;;;6.82;6.53;;;;;;;18.66;26.71;101421.13;5052045;28;20526;-63
2022/05/05 11:48:56;;;;;;;6.82;6.53;;;;;;;18.07;26.20;101431.72;5043367;28;20030;-63
2022/05/05 11:51:32;;;;;;;6.90;6.60;;;;;;;18.54;26.36;101413.84;5047432;28;20098;-63
2022/05/05 11:54:04;;;;;;;6.70;6.40;;;;;;;18.09;26.96;101416.22;5051545;28;20024;-63
2022/05/05 11:56:31;;;;;;;6.55;6.25;;;;;;;19.04;25.81;101407.03;5044346;28;20028;-63
2022/05/05 12:02:21;;;;;;;6.80;6.50;;;;;;;17.80;26.54;101395.91;5037799;28;20095;-63
2022/05/05 12:04:49;;;;;;;6.82;6.53;;;;;;;18.17;26.48;101405.31;5047167;28;20029;-63
2022/05/05 12:07:20;;;;;;;6.75;6.45;;;;;;;18.43;26.86;101409.88;5043382;28;20049;-63
2022/05/05 12:09:56;;;;;;;6.80;6.50;;;;;;;17.45;27.31;101405.81;5048679;28;20038;-63
2022/05/05 12:12:24;;;;;;;7.10;6.80;;;;;;;17.49;26.61;101396.38;5048291;28;20014;-63
2022/05/05 12:14:52;;;;;;;7.03;6.72;;;;;;;18.44;26.59;101406.19;5042046;28;20036;-62
2022/05/05 12:17:20;;;;;;;6.65;6.35;;;;;;;18.82;25.61;101405.59;5051083;28;20519;-62